sensor_id;sensor_type;location;lat;lon;timestamp;temperature;humidity
11107;DHT22;5607;48.302;14.294;2024-02-26T00:02:21;5.70;99.90
11107;DHT22;5607;48.302;14.294;2024-02-26T00:05:07;5.70;99.90
11107;DHT22;5607;48.302;14.294;2024-02-26T00:07:54;5.70;99.90
11107;DHT22;5607;48.302;14.294;2024-02-26T00:10:42;5.60;99.90
11107;DHT22;5607;48.302;14.294;2024-02-26T00:13:28;5.60;99.90
11107;DHT22;5607;48.302;14.294;2024-02-26T00:16:15;5.60;99.90
11107;DHT22;5607;48.302;14.294;2024-02-26T00:19:02;5.60;99.90
11107;DHT22;5607;48.302;14.294;2024-02-26T00:21:48;5.60;99.90
11107;DHT22;5607;48.302;14.294;2024-02-26T00:24:35;5.60;99.90
11107;DHT22;5607;48.302;14.294;2024-02-26T00:27:21;5.60;99.90
11107;DHT22;5607;48.302;14.294;2024-02-26T00:30:08;5.50;99.90
11107;DHT22;5607;48.302;14.294;2024-02-26T00:32:55;5.60;99.90
11107;DHT22;5607;48.302;14.294;2024-02-26T00:35:42;5.60;99.90
11107;DHT22;5607;48.302;14.294;2024-02-26T00:38:29;5.60;99.90
11107;DHT22;5607;48.302;14.294;2024-02-26T00:41:16;5.60;99.90
11107;DHT22;5607;48.302;14.294;2024-02-26T00:44:03;5.50;99.90
11107;DHT22;5607;48.302;14.294;2024-02-26T00:46:50;5.50;99.90
11107;DHT22;5607;48.302;14.294;2024-02-26T00:49:37;5.40;99.90
11107;DHT22;5607;48.302;14.294;2024-02-26T00:52:24;5.40;99.90
11107;DHT22;5607;48.302;14.294;2024-02-26T00:55:10;5.30;1.00
11107;DHT22;5607;48.302;14.294;2024-02-26T00:57:57;5.30;1.00
11107;DHT22;5607;48.302;14.294;2024-02-26T01:00:44;5.30;1.00
11107;DHT22;5607;48.302;14.294;2024-02-26T01:03:31;5.30;1.00
11107;DHT22;5607;48.302;14.294;2024-02-26T01:06:18;5.30;1.00
11107;DHT22;5607;48.302;14.294;2024-02-26T01:09:05;5.30;1.00
11107;DHT22;5607;48.302;14.294;2024-02-26T01:11:52;5.30;1.00
11107;DHT22;5607;48.302;14.294;2024-02-26T01:14:39;5.30;1.00
11107;DHT22;5607;48.302;14.294;2024-02-26T01:17:25;5.20;1.00
11107;DHT22;5607;48.302;14.294;2024-02-26T01:20:12;5.10;1.00
11107;DHT22;5607;48.302;14.294;2024-02-26T01:22:58;5.10;1.00
11107;DHT22;5607;48.302;14.294;2024-02-26T01:25:45;5.00;1.00
11107;DHT22;5607;48.302;14.294;2024-02-26T01:28:32;4.90;1.00
11107;DHT22;5607;48.302;14.294;2024-02-26T01:31:19;4.90;1.00
11107;DHT22;5607;48.302;14.294;2024-02-26T01:34:06;4.90;1.00
11107;DHT22;5607;48.302;14.294;2024-02-26T01:36:52;4.90;1.00
11107;DHT22;5607;48.302;14.294;2024-02-26T01:39:39;4.80;1.00
11107;DHT22;5607;48.302;14.294;2024-02-26T01:42:27;4.80;1.00
11107;DHT22;5607;48.302;14.294;2024-02-26T01:45:16;4.80;1.00
11107;DHT22;5607;48.302;14.294;2024-02-26T01:48:07;4.80;1.00
11107;DHT22;5607;48.302;14.294;2024-02-26T01:50:54;4.90;1.00
11107;DHT22;5607;48.302;14.294;2024-02-26T01:53:41;5.00;1.00
11107;DHT22;5607;48.302;14.294;2024-02-26T01:56:27;5.00;1.00
11107;DHT22;5607;48.302;14.294;2024-02-26T01:59:17;5.10;1.00
11107;DHT22;5607;48.302;14.294;2024-02-26T02:02:05;5.10;1.00
11107;DHT22;5607;48.302;14.294;2024-02-26T02:04:53;5.10;1.00
11107;DHT22;5607;48.302;14.294;2024-02-26T02:07:40;5.10;1.00
11107;DHT22;5607;48.302;14.294;2024-02-26T02:10:27;5.10;1.00
11107;DHT22;5607;48.302;14.294;2024-02-26T02:13:14;5.10;1.00
11107;DHT22;5607;48.302;14.294;2024-02-26T02:16:00;5.10;1.00
11107;DHT22;5607;48.302;14.294;2024-02-26T02:18:47;5.20;1.00
11107;DHT22;5607;48.302;14.294;2024-02-26T02:21:34;5.10;1.00
11107;DHT22;5607;48.302;14.294;2024-02-26T02:24:20;5.10;1.00
11107;DHT22;5607;48.302;14.294;2024-02-26T02:27:07;5.10;99.90
11107;DHT22;5607;48.302;14.294;2024-02-26T02:29:53;5.00;99.90
11107;DHT22;5607;48.302;14.294;2024-02-26T02:32:40;5.00;99.90
11107;DHT22;5607;48.302;14.294;2024-02-26T02:35:30;5.00;99.90
11107;DHT22;5607;48.302;14.294;2024-02-26T02:38:17;4.90;99.90
11107;DHT22;5607;48.302;14.294;2024-02-26T02:41:04;4.90;99.90
11107;DHT22;5607;48.302;14.294;2024-02-26T02:43:51;4.90;99.90
11107;DHT22;5607;48.302;14.294;2024-02-26T02:46:38;4.80;99.90
11107;DHT22;5607;48.302;14.294;2024-02-26T02:49:25;4.80;99.90
11107;DHT22;5607;48.302;14.294;2024-02-26T02:52:12;4.80;99.90
11107;DHT22;5607;48.302;14.294;2024-02-26T02:54:58;4.80;99.90
11107;DHT22;5607;48.302;14.294;2024-02-26T02:57:45;4.80;99.90
11107;DHT22;5607;48.302;14.294;2024-02-26T03:00:31;4.70;99.90
11107;DHT22;5607;48.302;14.294;2024-02-26T03:03:18;4.70;99.90
11107;DHT22;5607;48.302;14.294;2024-02-26T03:06:05;4.60;99.90
11107;DHT22;5607;48.302;14.294;2024-02-26T03:08:51;4.50;99.90
11107;DHT22;5607;48.302;14.294;2024-02-26T03:11:38;4.60;99.90
11107;DHT22;5607;48.302;14.294;2024-02-26T03:14:26;4.60;99.90
11107;DHT22;5607;48.302;14.294;2024-02-26T03:17:12;4.50;99.90
11107;DHT22;5607;48.302;14.294;2024-02-26T03:19:59;4.50;99.90
11107;DHT22;5607;48.302;14.294;2024-02-26T03:22:45;4.50;99.90
11107;DHT22;5607;48.302;14.294;2024-02-26T03:25:32;4.60;99.90
11107;DHT22;5607;48.302;14.294;2024-02-26T03:28:19;4.50;99.90
11107;DHT22;5607;48.302;14.294;2024-02-26T03:31:05;4.50;99.90
11107;DHT22;5607;48.302;14.294;2024-02-26T03:33:52;4.50;99.90
11107;DHT22;5607;48.302;14.294;2024-02-26T03:36:38;4.40;1.00
11107;DHT22;5607;48.302;14.294;2024-02-26T03:39:25;4.30;1.00
11107;DHT22;5607;48.302;14.294;2024-02-26T03:42:11;4.10;1.00
11107;DHT22;5607;48.302;14.294;2024-02-26T03:44:58;4.00;1.00
11107;DHT22;5607;48.302;14.294;2024-02-26T03:47:45;3.90;1.00
11107;DHT22;5607;48.302;14.294;2024-02-26T03:50:31;3.80;1.00
11107;DHT22;5607;48.302;14.294;2024-02-26T03:53:18;3.90;1.00
11107;DHT22;5607;48.302;14.294;2024-02-26T03:56:05;3.90;1.00
11107;DHT22;5607;48.302;14.294;2024-02-26T03:58:52;4.00;1.00
11107;DHT22;5607;48.302;14.294;2024-02-26T04:01:44;4.00;1.00
11107;DHT22;5607;48.302;14.294;2024-02-26T04:04:35;4.00;1.00
11107;DHT22;5607;48.302;14.294;2024-02-26T04:07:22;4.00;1.00
11107;DHT22;5607;48.302;14.294;2024-02-26T04:10:09;4.00;1.00
11107;DHT22;5607;48.302;14.294;2024-02-26T04:12:56;3.90;1.00
11107;DHT22;5607;48.302;14.294;2024-02-26T04:15:43;3.80;99.90
11107;DHT22;5607;48.302;14.294;2024-02-26T04:18:30;3.70;99.90
11107;DHT22;5607;48.302;14.294;2024-02-26T04:21:16;3.50;99.90
11107;DHT22;5607;48.302;14.294;2024-02-26T04:24:03;3.40;99.90
11107;DHT22;5607;48.302;14.294;2024-02-26T04:26:50;3.30;99.90
11107;DHT22;5607;48.302;14.294;2024-02-26T04:29:36;3.30;99.90
11107;DHT22;5607;48.302;14.294;2024-02-26T04:32:23;3.20;99.90
11107;DHT22;5607;48.302;14.294;2024-02-26T04:35:10;3.20;99.90
11107;DHT22;5607;48.302;14.294;2024-02-26T04:37:57;3.10;99.90
11107;DHT22;5607;48.302;14.294;2024-02-26T04:40:44;3.10;99.90
11107;DHT22;5607;48.302;14.294;2024-02-26T04:43:30;3.00;99.90
11107;DHT22;5607;48.302;14.294;2024-02-26T04:46:17;3.00;99.90
11107;DHT22;5607;48.302;14.294;2024-02-26T04:49:04;3.00;99.90
11107;DHT22;5607;48.302;14.294;2024-02-26T04:51:50;3.00;99.90
11107;DHT22;5607;48.302;14.294;2024-02-26T04:54:37;3.00;99.90
11107;DHT22;5607;48.302;14.294;2024-02-26T04:57:24;3.10;99.90
11107;DHT22;5607;48.302;14.294;2024-02-26T05:00:12;3.00;99.90
11107;DHT22;5607;48.302;14.294;2024-02-26T05:02:59;3.00;99.90
11107;DHT22;5607;48.302;14.294;2024-02-26T05:05:46;3.00;99.90
11107;DHT22;5607;48.302;14.294;2024-02-26T05:08:33;3.00;99.90
11107;DHT22;5607;48.302;14.294;2024-02-26T05:11:22;2.90;99.90
11107;DHT22;5607;48.302;14.294;2024-02-26T05:14:08;2.90;99.90
11107;DHT22;5607;48.302;14.294;2024-02-26T05:17:01;2.90;99.90
11107;DHT22;5607;48.302;14.294;2024-02-26T05:19:47;2.90;99.90
11107;DHT22;5607;48.302;14.294;2024-02-26T05:22:34;2.90;99.90
11107;DHT22;5607;48.302;14.294;2024-02-26T05:25:21;2.90;99.90
11107;DHT22;5607;48.302;14.294;2024-02-26T05:28:07;2.80;99.90
11107;DHT22;5607;48.302;14.294;2024-02-26T05:30:54;2.90;99.90
11107;DHT22;5607;48.302;14.294;2024-02-26T05:33:42;2.90;99.90
11107;DHT22;5607;48.302;14.294;2024-02-26T05:36:29;2.80;99.90
11107;DHT22;5607;48.302;14.294;2024-02-26T05:39:19;2.80;99.90
11107;DHT22;5607;48.302;14.294;2024-02-26T05:42:05;2.80;99.90
11107;DHT22;5607;48.302;14.294;2024-02-26T05:44:52;2.70;99.90
11107;DHT22;5607;48.302;14.294;2024-02-26T05:47:40;2.70;99.90
11107;DHT22;5607;48.302;14.294;2024-02-26T05:50:28;2.70;99.90
11107;DHT22;5607;48.302;14.294;2024-02-26T05:53:15;2.70;99.90
11107;DHT22;5607;48.302;14.294;2024-02-26T05:56:02;2.60;99.90
11107;DHT22;5607;48.302;14.294;2024-02-26T05:58:49;2.60;99.90
11107;DHT22;5607;48.302;14.294;2024-02-26T06:01:36;2.50;99.90
11107;DHT22;5607;48.302;14.294;2024-02-26T06:04:22;2.50;99.90
11107;DHT22;5607;48.302;14.294;2024-02-26T06:07:09;2.50;99.90
11107;DHT22;5607;48.302;14.294;2024-02-26T06:09:55;2.40;99.90
11107;DHT22;5607;48.302;14.294;2024-02-26T06:12:42;2.40;99.90
11107;DHT22;5607;48.302;14.294;2024-02-26T06:15:30;2.50;99.90
11107;DHT22;5607;48.302;14.294;2024-02-26T06:18:16;2.50;99.90
11107;DHT22;5607;48.302;14.294;2024-02-26T06:21:03;2.50;99.90
11107;DHT22;5607;48.302;14.294;2024-02-26T06:23:50;2.50;99.90
11107;DHT22;5607;48.302;14.294;2024-02-26T06:26:36;2.50;99.90
11107;DHT22;5607;48.302;14.294;2024-02-26T06:29:23;2.60;1.00
11107;DHT22;5607;48.302;14.294;2024-02-26T06:32:10;2.60;1.00
11107;DHT22;5607;48.302;14.294;2024-02-26T06:34:56;2.60;1.40
11107;DHT22;5607;48.302;14.294;2024-02-26T06:37:43;2.60;99.90
11107;DHT22;5607;48.302;14.294;2024-02-26T06:40:30;2.70;99.90
11107;DHT22;5607;48.302;14.294;2024-02-26T06:43:17;2.70;99.90
11107;DHT22;5607;48.302;14.294;2024-02-26T06:46:03;2.70;99.90
11107;DHT22;5607;48.302;14.294;2024-02-26T06:48:51;2.70;99.90
11107;DHT22;5607;48.302;14.294;2024-02-26T06:51:38;2.80;99.90
11107;DHT22;5607;48.302;14.294;2024-02-26T06:54:25;2.80;99.90
11107;DHT22;5607;48.302;14.294;2024-02-26T06:57:11;2.90;99.90
11107;DHT22;5607;48.302;14.294;2024-02-26T06:59:58;3.00;99.90
11107;DHT22;5607;48.302;14.294;2024-02-26T07:02:45;3.00;99.90
11107;DHT22;5607;48.302;14.294;2024-02-26T07:05:32;3.10;99.90
11107;DHT22;5607;48.302;14.294;2024-02-26T07:08:18;3.10;99.90
11107;DHT22;5607;48.302;14.294;2024-02-26T07:11:08;3.20;99.90
11107;DHT22;5607;48.302;14.294;2024-02-26T07:13:55;3.20;99.90
11107;DHT22;5607;48.302;14.294;2024-02-26T07:16:42;3.30;99.90
11107;DHT22;5607;48.302;14.294;2024-02-26T07:19:29;3.50;99.90
11107;DHT22;5607;48.302;14.294;2024-02-26T07:22:15;3.50;99.90
11107;DHT22;5607;48.302;14.294;2024-02-26T07:25:02;3.60;99.90
11107;DHT22;5607;48.302;14.294;2024-02-26T07:27:50;3.70;99.90
11107;DHT22;5607;48.302;14.294;2024-02-26T07:30:36;3.60;99.90
11107;DHT22;5607;48.302;14.294;2024-02-26T07:33:23;3.50;99.90
11107;DHT22;5607;48.302;14.294;2024-02-26T07:36:10;3.50;99.90
11107;DHT22;5607;48.302;14.294;2024-02-26T07:38:56;3.60;99.90
11107;DHT22;5607;48.302;14.294;2024-02-26T07:41:43;3.70;99.90
11107;DHT22;5607;48.302;14.294;2024-02-26T07:44:32;3.70;99.90
11107;DHT22;5607;48.302;14.294;2024-02-26T07:47:19;3.80;99.90
11107;DHT22;5607;48.302;14.294;2024-02-26T07:50:09;3.90;99.90
11107;DHT22;5607;48.302;14.294;2024-02-26T07:52:58;4.00;99.90
11107;DHT22;5607;48.302;14.294;2024-02-26T07:55:44;4.00;99.90
11107;DHT22;5607;48.302;14.294;2024-02-26T07:58:34;4.20;99.90
11107;DHT22;5607;48.302;14.294;2024-02-26T08:01:21;4.30;99.90
11107;DHT22;5607;48.302;14.294;2024-02-26T08:04:07;4.40;99.90
11107;DHT22;5607;48.302;14.294;2024-02-26T08:06:54;4.50;99.90
11107;DHT22;5607;48.302;14.294;2024-02-26T08:09:41;4.70;99.90
11107;DHT22;5607;48.302;14.294;2024-02-26T08:12:27;4.80;99.90
11107;DHT22;5607;48.302;14.294;2024-02-26T08:15:14;4.80;99.90
11107;DHT22;5607;48.302;14.294;2024-02-26T08:18:01;4.90;99.90
11107;DHT22;5607;48.302;14.294;2024-02-26T08:20:50;5.00;99.90
11107;DHT22;5607;48.302;14.294;2024-02-26T08:23:37;5.20;99.90
11107;DHT22;5607;48.302;14.294;2024-02-26T08:26:23;5.40;99.90
11107;DHT22;5607;48.302;14.294;2024-02-26T08:29:11;5.50;99.90
11107;DHT22;5607;48.302;14.294;2024-02-26T08:31:58;5.50;99.90
11107;DHT22;5607;48.302;14.294;2024-02-26T08:34:44;5.70;99.90
11107;DHT22;5607;48.302;14.294;2024-02-26T08:37:31;5.90;99.90
11107;DHT22;5607;48.302;14.294;2024-02-26T08:40:17;6.10;99.90
11107;DHT22;5607;48.302;14.294;2024-02-26T08:43:05;6.30;99.90
11107;DHT22;5607;48.302;14.294;2024-02-26T08:45:56;6.50;99.90
11107;DHT22;5607;48.302;14.294;2024-02-26T08:48:44;6.60;99.90
11107;DHT22;5607;48.302;14.294;2024-02-26T08:51:31;6.70;99.90
11107;DHT22;5607;48.302;14.294;2024-02-26T08:54:17;6.80;99.90
11107;DHT22;5607;48.302;14.294;2024-02-26T08:57:04;6.80;99.90
11107;DHT22;5607;48.302;14.294;2024-02-26T08:59:51;7.00;99.90
11107;DHT22;5607;48.302;14.294;2024-02-26T09:02:38;7.10;99.90
11107;DHT22;5607;48.302;14.294;2024-02-26T09:05:26;7.20;99.90
11107;DHT22;5607;48.302;14.294;2024-02-26T09:08:13;7.40;99.90
11107;DHT22;5607;48.302;14.294;2024-02-26T09:10:59;7.60;99.90
11107;DHT22;5607;48.302;14.294;2024-02-26T09:13:46;7.70;99.90
11107;DHT22;5607;48.302;14.294;2024-02-26T09:16:32;7.70;99.90
11107;DHT22;5607;48.302;14.294;2024-02-26T09:19:19;7.80;99.90
11107;DHT22;5607;48.302;14.294;2024-02-26T09:22:05;7.80;99.90
11107;DHT22;5607;48.302;14.294;2024-02-26T09:24:54;7.80;99.90
11107;DHT22;5607;48.302;14.294;2024-02-26T09:27:41;7.80;99.90
11107;DHT22;5607;48.302;14.294;2024-02-26T09:30:29;7.70;99.90
11107;DHT22;5607;48.302;14.294;2024-02-26T09:33:16;7.60;99.90
11107;DHT22;5607;48.302;14.294;2024-02-26T09:36:03;7.60;99.90
11107;DHT22;5607;48.302;14.294;2024-02-26T09:38:50;7.70;99.90
11107;DHT22;5607;48.302;14.294;2024-02-26T09:41:38;7.80;99.90
11107;DHT22;5607;48.302;14.294;2024-02-26T09:44:25;7.90;99.90
11107;DHT22;5607;48.302;14.294;2024-02-26T09:47:16;8.00;99.90
11107;DHT22;5607;48.302;14.294;2024-02-26T09:50:03;8.00;99.90
11107;DHT22;5607;48.302;14.294;2024-02-26T09:52:54;8.00;99.90
11107;DHT22;5607;48.302;14.294;2024-02-26T09:55:43;8.20;99.90
11107;DHT22;5607;48.302;14.294;2024-02-26T09:58:30;8.20;99.90
11107;DHT22;5607;48.302;14.294;2024-02-26T10:01:18;8.20;99.90
11107;DHT22;5607;48.302;14.294;2024-02-26T10:04:04;8.10;99.90
11107;DHT22;5607;48.302;14.294;2024-02-26T10:06:51;8.10;99.90
11107;DHT22;5607;48.302;14.294;2024-02-26T10:09:39;8.10;99.90
11107;DHT22;5607;48.302;14.294;2024-02-26T10:12:39;8.30;99.90
11107;DHT22;5607;48.302;14.294;2024-02-26T10:15:25;8.40;99.90
11107;DHT22;5607;48.302;14.294;2024-02-26T10:18:13;8.50;99.90
11107;DHT22;5607;48.302;14.294;2024-02-26T10:21:00;8.70;99.90
11107;DHT22;5607;48.302;14.294;2024-02-26T10:23:48;8.80;99.90
11107;DHT22;5607;48.302;14.294;2024-02-26T10:26:36;8.70;99.90
11107;DHT22;5607;48.302;14.294;2024-02-26T10:29:23;8.90;99.90
11107;DHT22;5607;48.302;14.294;2024-02-26T10:32:11;9.00;99.90
11107;DHT22;5607;48.302;14.294;2024-02-26T10:34:59;9.10;99.90
11107;DHT22;5607;48.302;14.294;2024-02-26T10:37:46;9.20;99.90
11107;DHT22;5607;48.302;14.294;2024-02-26T10:40:34;9.30;99.90
11107;DHT22;5607;48.302;14.294;2024-02-26T10:43:21;9.40;99.90
11107;DHT22;5607;48.302;14.294;2024-02-26T10:46:08;9.40;99.90
11107;DHT22;5607;48.302;14.294;2024-02-26T10:48:56;9.60;99.90
11107;DHT22;5607;48.302;14.294;2024-02-26T10:51:43;9.70;99.90
11107;DHT22;5607;48.302;14.294;2024-02-26T10:54:32;9.80;99.90
11107;DHT22;5607;48.302;14.294;2024-02-26T10:57:21;9.80;99.90
11107;DHT22;5607;48.302;14.294;2024-02-26T11:00:09;9.70;99.90
11107;DHT22;5607;48.302;14.294;2024-02-26T11:02:59;9.60;99.90
11107;DHT22;5607;48.302;14.294;2024-02-26T11:05:49;9.60;99.90
11107;DHT22;5607;48.302;14.294;2024-02-26T11:08:36;9.60;99.90
11107;DHT22;5607;48.302;14.294;2024-02-26T11:11:23;9.80;99.90
11107;DHT22;5607;48.302;14.294;2024-02-26T11:14:14;10.00;99.90
11107;DHT22;5607;48.302;14.294;2024-02-26T11:17:01;10.10;99.90
11107;DHT22;5607;48.302;14.294;2024-02-26T11:19:49;10.20;99.90
11107;DHT22;5607;48.302;14.294;2024-02-26T11:22:37;10.20;99.90
11107;DHT22;5607;48.302;14.294;2024-02-26T11:25:24;10.30;99.90
11107;DHT22;5607;48.302;14.294;2024-02-26T11:28:14;10.30;99.90
11107;DHT22;5607;48.302;14.294;2024-02-26T11:31:05;10.30;99.90
11107;DHT22;5607;48.302;14.294;2024-02-26T11:33:53;10.50;99.90
11107;DHT22;5607;48.302;14.294;2024-02-26T11:36:42;10.70;99.90
11107;DHT22;5607;48.302;14.294;2024-02-26T11:39:28;10.80;99.90
11107;DHT22;5607;48.302;14.294;2024-02-26T11:42:17;11.00;99.90
11107;DHT22;5607;48.302;14.294;2024-02-26T11:45:04;11.20;99.90
11107;DHT22;5607;48.302;14.294;2024-02-26T11:48:28;11.30;99.90
11107;DHT22;5607;48.302;14.294;2024-02-26T11:51:18;11.30;99.90
11107;DHT22;5607;48.302;14.294;2024-02-26T11:54:11;11.40;99.90
11107;DHT22;5607;48.302;14.294;2024-02-26T11:56:58;11.60;99.90
11107;DHT22;5607;48.302;14.294;2024-02-26T11:59:44;11.70;99.90
11107;DHT22;5607;48.302;14.294;2024-02-26T12:05:35;11.80;99.90
11107;DHT22;5607;48.302;14.294;2024-02-26T12:08:23;11.70;99.90
11107;DHT22;5607;48.302;14.294;2024-02-26T12:11:14;11.70;99.90
11107;DHT22;5607;48.302;14.294;2024-02-26T12:14:02;11.50;99.90
11107;DHT22;5607;48.302;14.294;2024-02-26T12:16:49;11.60;99.90
11107;DHT22;5607;48.302;14.294;2024-02-26T12:19:37;11.50;99.90
11107;DHT22;5607;48.302;14.294;2024-02-26T12:25:31;11.40;99.90
11107;DHT22;5607;48.302;14.294;2024-02-26T12:28:19;11.40;99.90
11107;DHT22;5607;48.302;14.294;2024-02-26T12:31:05;11.40;99.90
11107;DHT22;5607;48.302;14.294;2024-02-26T12:33:52;11.40;99.90
11107;DHT22;5607;48.302;14.294;2024-02-26T12:36:40;11.30;99.90
11107;DHT22;5607;48.302;14.294;2024-02-26T12:39:27;11.40;99.90
11107;DHT22;5607;48.302;14.294;2024-02-26T12:42:13;11.40;99.90
11107;DHT22;5607;48.302;14.294;2024-02-26T12:45:01;11.40;99.90
11107;DHT22;5607;48.302;14.294;2024-02-26T12:47:48;11.50;99.90
11107;DHT22;5607;48.302;14.294;2024-02-26T12:50:36;11.60;99.90
11107;DHT22;5607;48.302;14.294;2024-02-26T12:53:22;11.70;99.90
11107;DHT22;5607;48.302;14.294;2024-02-26T12:56:11;11.60;99.90
11107;DHT22;5607;48.302;14.294;2024-02-26T12:58:58;11.60;99.90
11107;DHT22;5607;48.302;14.294;2024-02-26T13:01:45;11.70;99.90
11107;DHT22;5607;48.302;14.294;2024-02-26T13:04:32;11.80;99.90
11107;DHT22;5607;48.302;14.294;2024-02-26T13:07:20;11.90;99.90
11107;DHT22;5607;48.302;14.294;2024-02-26T13:10:07;12.10;99.90
11107;DHT22;5607;48.302;14.294;2024-02-26T13:12:54;12.20;99.90
11107;DHT22;5607;48.302;14.294;2024-02-26T13:15:41;12.30;99.90
11107;DHT22;5607;48.302;14.294;2024-02-26T13:18:27;12.30;99.90
11107;DHT22;5607;48.302;14.294;2024-02-26T13:21:18;12.40;99.90
11107;DHT22;5607;48.302;14.294;2024-02-26T13:24:05;12.40;99.90
11107;DHT22;5607;48.302;14.294;2024-02-26T13:26:55;12.30;99.90
11107;DHT22;5607;48.302;14.294;2024-02-26T13:29:42;12.20;99.90
11107;DHT22;5607;48.302;14.294;2024-02-26T13:32:31;12.20;99.90
11107;DHT22;5607;48.302;14.294;2024-02-26T13:35:18;12.10;99.90
11107;DHT22;5607;48.302;14.294;2024-02-26T13:38:05;12.10;99.90
11107;DHT22;5607;48.302;14.294;2024-02-26T13:40:53;12.10;99.90
11107;DHT22;5607;48.302;14.294;2024-02-26T13:43:40;12.10;99.90
11107;DHT22;5607;48.302;14.294;2024-02-26T13:46:27;12.00;99.90
11107;DHT22;5607;48.302;14.294;2024-02-26T13:49:13;11.90;99.90
11107;DHT22;5607;48.302;14.294;2024-02-26T13:52:00;12.00;99.90
11107;DHT22;5607;48.302;14.294;2024-02-26T13:54:46;11.90;99.90
11107;DHT22;5607;48.302;14.294;2024-02-26T13:57:33;12.00;99.90
11107;DHT22;5607;48.302;14.294;2024-02-26T14:00:20;12.10;99.90
11107;DHT22;5607;48.302;14.294;2024-02-26T14:03:07;12.20;99.90
11107;DHT22;5607;48.302;14.294;2024-02-26T14:05:53;12.40;99.90
11107;DHT22;5607;48.302;14.294;2024-02-26T14:08:40;12.50;99.90
11107;DHT22;5607;48.302;14.294;2024-02-26T14:11:27;12.60;99.90
11107;DHT22;5607;48.302;14.294;2024-02-26T14:14:15;12.70;99.90
11107;DHT22;5607;48.302;14.294;2024-02-26T14:17:01;12.70;99.90
11107;DHT22;5607;48.302;14.294;2024-02-26T14:19:49;12.70;99.90
11107;DHT22;5607;48.302;14.294;2024-02-26T14:22:36;12.70;99.90
11107;DHT22;5607;48.302;14.294;2024-02-26T14:25:23;12.70;99.90
11107;DHT22;5607;48.302;14.294;2024-02-26T14:28:10;12.70;99.90
11107;DHT22;5607;48.302;14.294;2024-02-26T14:30:57;12.60;99.90
11107;DHT22;5607;48.302;14.294;2024-02-26T14:33:44;12.70;99.90
11107;DHT22;5607;48.302;14.294;2024-02-26T14:36:31;12.60;99.90
11107;DHT22;5607;48.302;14.294;2024-02-26T14:39:17;12.50;99.90
11107;DHT22;5607;48.302;14.294;2024-02-26T14:42:04;12.50;99.90
11107;DHT22;5607;48.302;14.294;2024-02-26T14:44:51;12.50;99.90
11107;DHT22;5607;48.302;14.294;2024-02-26T14:47:38;12.50;99.90
11107;DHT22;5607;48.302;14.294;2024-02-26T14:50:25;12.50;99.90
11107;DHT22;5607;48.302;14.294;2024-02-26T14:53:11;12.60;99.90
11107;DHT22;5607;48.302;14.294;2024-02-26T14:55:58;12.70;99.90
11107;DHT22;5607;48.302;14.294;2024-02-26T14:58:46;12.70;99.90
11107;DHT22;5607;48.302;14.294;2024-02-26T15:01:33;12.60;99.90
11107;DHT22;5607;48.302;14.294;2024-02-26T15:04:20;12.50;99.90
11107;DHT22;5607;48.302;14.294;2024-02-26T15:07:07;12.30;99.90
11107;DHT22;5607;48.302;14.294;2024-02-26T15:09:53;12.20;99.90
11107;DHT22;5607;48.302;14.294;2024-02-26T15:12:43;12.10;99.90
11107;DHT22;5607;48.302;14.294;2024-02-26T15:15:30;12.10;99.90
11107;DHT22;5607;48.302;14.294;2024-02-26T15:18:17;12.00;99.90
11107;DHT22;5607;48.302;14.294;2024-02-26T15:21:04;12.10;99.90
11107;DHT22;5607;48.302;14.294;2024-02-26T15:23:50;12.10;99.90
11107;DHT22;5607;48.302;14.294;2024-02-26T15:26:39;12.10;99.90
11107;DHT22;5607;48.302;14.294;2024-02-26T15:29:27;12.00;99.90
11107;DHT22;5607;48.302;14.294;2024-02-26T15:32:15;11.90;99.90
11107;DHT22;5607;48.302;14.294;2024-02-26T15:35:02;11.90;99.90
11107;DHT22;5607;48.302;14.294;2024-02-26T15:37:49;11.70;99.90
11107;DHT22;5607;48.302;14.294;2024-02-26T15:40:37;11.60;99.90
11107;DHT22;5607;48.302;14.294;2024-02-26T15:43:24;11.60;99.90
11107;DHT22;5607;48.302;14.294;2024-02-26T15:46:11;11.60;99.90
11107;DHT22;5607;48.302;14.294;2024-02-26T15:49:00;11.60;99.90
11107;DHT22;5607;48.302;14.294;2024-02-26T15:51:48;11.50;99.90
11107;DHT22;5607;48.302;14.294;2024-02-26T15:54:40;11.40;99.90
11107;DHT22;5607;48.302;14.294;2024-02-26T15:57:27;11.40;99.90
11107;DHT22;5607;48.302;14.294;2024-02-26T16:00:13;11.30;99.90
11107;DHT22;5607;48.302;14.294;2024-02-26T16:03:00;11.30;99.90
11107;DHT22;5607;48.302;14.294;2024-02-26T16:05:49;11.30;99.90
11107;DHT22;5607;48.302;14.294;2024-02-26T16:08:36;11.20;99.90
11107;DHT22;5607;48.302;14.294;2024-02-26T16:11:23;11.10;99.90
11107;DHT22;5607;48.302;14.294;2024-02-26T16:17:40;11.00;99.90
11107;DHT22;5607;48.302;14.294;2024-02-26T16:20:32;10.90;99.90
11107;DHT22;5607;48.302;14.294;2024-02-26T16:23:20;10.90;99.90
11107;DHT22;5607;48.302;14.294;2024-02-26T16:26:08;10.80;99.90
11107;DHT22;5607;48.302;14.294;2024-02-26T16:28:55;10.70;99.90
11107;DHT22;5607;48.302;14.294;2024-02-26T16:31:41;10.70;99.90
11107;DHT22;5607;48.302;14.294;2024-02-26T16:34:28;10.60;99.90
11107;DHT22;5607;48.302;14.294;2024-02-26T16:37:15;10.50;99.90
11107;DHT22;5607;48.302;14.294;2024-02-26T16:40:04;10.50;99.90
11107;DHT22;5607;48.302;14.294;2024-02-26T16:42:52;10.40;99.90
11107;DHT22;5607;48.302;14.294;2024-02-26T16:45:38;10.40;99.90
11107;DHT22;5607;48.302;14.294;2024-02-26T16:48:25;10.30;99.90
11107;DHT22;5607;48.302;14.294;2024-02-26T16:51:11;10.30;99.90
11107;DHT22;5607;48.302;14.294;2024-02-26T16:53:58;10.20;99.90
11107;DHT22;5607;48.302;14.294;2024-02-26T16:56:45;10.10;99.90
11107;DHT22;5607;48.302;14.294;2024-02-26T16:59:31;10.10;99.90
11107;DHT22;5607;48.302;14.294;2024-02-26T17:02:18;10.10;99.90
11107;DHT22;5607;48.302;14.294;2024-02-26T17:05:05;10.00;99.90
11107;DHT22;5607;48.302;14.294;2024-02-26T17:07:53;9.90;99.90
11107;DHT22;5607;48.302;14.294;2024-02-26T17:10:40;9.90;99.90
11107;DHT22;5607;48.302;14.294;2024-02-26T17:13:26;9.80;99.90
11107;DHT22;5607;48.302;14.294;2024-02-26T17:16:16;9.80;99.90
11107;DHT22;5607;48.302;14.294;2024-02-26T17:19:03;9.70;99.90
11107;DHT22;5607;48.302;14.294;2024-02-26T17:21:49;9.60;99.90
11107;DHT22;5607;48.302;14.294;2024-02-26T17:24:38;9.60;99.90
11107;DHT22;5607;48.302;14.294;2024-02-26T17:27:25;9.60;99.90
11107;DHT22;5607;48.302;14.294;2024-02-26T17:30:12;9.50;99.90
11107;DHT22;5607;48.302;14.294;2024-02-26T17:32:58;9.50;99.90
11107;DHT22;5607;48.302;14.294;2024-02-26T17:35:45;9.50;99.90
11107;DHT22;5607;48.302;14.294;2024-02-26T17:38:32;9.40;99.90
11107;DHT22;5607;48.302;14.294;2024-02-26T17:41:18;9.40;99.90
11107;DHT22;5607;48.302;14.294;2024-02-26T17:44:05;9.40;99.90
11107;DHT22;5607;48.302;14.294;2024-02-26T17:46:52;9.40;99.90
11107;DHT22;5607;48.302;14.294;2024-02-26T17:49:39;9.40;99.90
11107;DHT22;5607;48.302;14.294;2024-02-26T17:52:28;9.40;99.90
11107;DHT22;5607;48.302;14.294;2024-02-26T17:55:20;9.40;99.90
11107;DHT22;5607;48.302;14.294;2024-02-26T17:58:07;9.30;99.90
11107;DHT22;5607;48.302;14.294;2024-02-26T18:00:53;9.30;99.90